CheckWX is a tool to help pilots better visualize weather data.  It is not intended as a substitute for an official pre-flight weather briefing.

09:23:34 UTC

KIPT TAF
Williamsport Regional Airport
Williamsport, Pennsylvania, USA
KIPT 210911Z 2109/2206 00000KT 1/2SM FG VV002 FM211400 VRB03KT P6SM FEW050 FM211800 22004KT P6SM SCT050 FM220000 VRB02KT P6SM SCT200

Sep-21@
09:00 UTC

Sep-21 @ 09:00 UTC

Sep-21@
14:00 UTC

Sep-21 @ 14:00 UTC

KIPT 210911Z 2109/2206 00000KT 1/2SM FG VV002
Conditions
Fog
Cloud Levels
  • Vertical visibility at 200' AGL

Sep-21@
14:00 UTC

Sep-21 @ 14:00 UTC

Sep-21@
18:00 UTC

Sep-21 @ 18:00 UTC

FM211400 VRB03KT P6SM FEW050

From

From Standard forecast or significant change

Wind
  • Variable at 3 KTS
Cloud Levels
  • Few at 5,000' AGL

Sep-21@
18:00 UTC

Sep-21 @ 18:00 UTC

Sep-22@
00:00 UTC

Sep-22 @ 00:00 UTC

FM211800 22004KT P6SM SCT050

From

From Standard forecast or significant change

Wind
  • 220° at 4 KTS
Cloud Levels
  • Scattered at 5,000' AGL

Sep-22@
00:00 UTC

Sep-22 @ 00:00 UTC

Sep-22@
06:00 UTC

Sep-22 @ 06:00 UTC

FM220000 VRB02KT P6SM SCT200

From

From Standard forecast or significant change

Wind
  • Variable at 2 KTS
Cloud Levels
  • Scattered at 20,000' AGL